Time;durP1;ratioP1;P1;durP2;ratioP2;P2;SDS_P1;SDS_P2;PMS_P1;PMS_P2;Temp;Humidity;BMP_temperature;BMP_pressure;BME280_temperature;BME280_humidity;BME280_pressure;Samples;Min_cycle;Max_cycle;Signal;HPM_P1;HPM_P2
2021/08/13 00:00:47;;;;;;;9.07;7.13;;;18.10;99.90;;;;;;5010242;28;20403;-74
2021/08/13 00:03:14;;;;;;;10.15;7.35;;;18.10;99.90;;;;;;5007226;28;20391;-74
2021/08/13 00:05:40;;;;;;;9.95;7.50;;;18.00;99.90;;;;;;5012788;28;20076;-74
2021/08/13 00:08:06;;;;;;;10.73;7.50;;;18.00;99.90;;;;;;5015236;28;20038;-74
2021/08/13 00:10:32;;;;;;;14.95;8.00;;;17.90;99.90;;;;;;5011080;28;20390;-74
2021/08/13 00:12:58;;;;;;;10.73;7.30;;;17.90;99.90;;;;;;5011444;28;20030;-74
2021/08/13 00:15:24;;;;;;;12.00;7.97;;;17.90;99.90;;;;;;5010928;28;20468;-74
2021/08/13 00:17:50;;;;;;;12.38;7.85;;;18.10;99.90;;;;;;5012898;28;20018;-74
2021/08/13 00:20:15;;;;;;;13.55;7.88;;;18.20;99.90;;;;;;5012945;28;20036;-74
2021/08/13 00:22:41;;;;;;;11.40;7.90;;;18.20;99.90;;;;;;5003522;28;20432;-74
2021/08/13 00:25:07;;;;;;;14.23;8.27;;;18.30;99.90;;;;;;5003422;28;20022;-74
2021/08/13 00:27:32;;;;;;;12.25;7.68;;;18.20;99.90;;;;;;5009504;28;20030;-74
2021/08/13 00:29:58;;;;;;;10.77;8.00;;;18.10;99.90;;;;;;5007284;28;20034;-74
2021/08/13 00:32:23;;;;;;;13.30;7.93;;;18.10;99.90;;;;;;5007500;28;20022;-73
2021/08/13 00:34:49;;;;;;;11.63;7.85;;;18.20;99.90;;;;;;5006408;28;20385;-73
2021/08/13 00:37:14;;;;;;;11.95;7.90;;;18.20;99.90;;;;;;5006627;28;20023;-74
2021/08/13 00:39:40;;;;;;;10.73;7.90;;;18.00;99.90;;;;;;5012666;28;20022;-73
2021/08/13 00:42:05;;;;;;;10.95;7.90;;;18.20;99.90;;;;;;5010514;28;20476;-74
2021/08/13 00:44:31;;;;;;;11.05;7.93;;;18.10;99.90;;;;;;5013485;28;20022;-75
2021/08/13 00:46:57;;;;;;;11.02;7.78;;;18.20;99.90;;;;;;5011682;28;20022;-75
2021/08/13 00:49:22;;;;;;;14.32;8.55;;;18.20;99.90;;;;;;5010931;28;20117;-74
2021/08/13 00:51:48;;;;;;;15.45;8.32;;;18.30;99.90;;;;;;5011158;28;20018;-74
2021/08/13 00:54:14;;;;;;;11.23;7.75;;;18.40;99.90;;;;;;5009767;28;20026;-74
2021/08/13 00:56:39;;;;;;;10.52;7.45;;;18.30;99.90;;;;;;5007441;28;20021;-74
2021/08/13 00:59:09;;;;;;;11.02;7.97;;;18.20;99.90;;;;;;5011173;28;20022;-74
2021/08/13 01:01:35;;;;;;;14.48;8.68;;;18.10;99.90;;;;;;5012732;28;20024;-74
2021/08/13 01:04:01;;;;;;;15.63;7.75;;;17.10;99.90;;;;;;5004663;28;20032;-74
2021/08/13 01:06:26;;;;;;;12.48;8.73;;;16.90;99.90;;;;;;5012250;28;20097;-74
2021/08/13 01:08:52;;;;;;;22.15;9.63;;;16.60;99.90;;;;;;5010328;28;20022;-74
2021/08/13 01:11:27;;;;;;;15.93;10.00;;;16.90;99.90;;;;;;5005319;28;20022;-73
2021/08/13 01:14:09;;;;;;;12.02;9.20;;;16.90;99.90;;;;;;5011882;28;20017;-74
2021/08/13 01:16:40;;;;;;;13.13;9.65;;;16.90;99.90;;;;;;5004580;28;20503;-74
2021/08/13 01:19:48;;;;;;;13.73;9.23;;;16.90;99.90;;;;;;5010536;28;20382;-74
2021/08/13 01:22:19;;;;;;;15.30;9.63;;;17.00;99.90;;;;;;5008952;28;20432;-74
2021/08/13 01:24:47;;;;;;;15.00;10.25;;;17.10;99.90;;;;;;5006913;28;20369;-74
2021/08/13 01:27:47;;;;;;;13.02;9.00;;;17.00;99.90;;;;;;5010440;28;20125;-74
2021/08/13 01:30:18;;;;;;;11.77;8.75;;;17.10;99.90;;;;;;5006733;28;20554;-74
2021/08/13 01:32:51;;;;;;;13.75;9.07;;;17.10;99.90;;;;;;5011518;28;20057;-74
2021/08/13 01:35:38;;;;;;;13.18;9.35;;;17.10;99.90;;;;;;5005127;28;20018;-74
2021/08/13 01:38:14;;;;;;;13.23;8.52;;;17.00;99.90;;;;;;5008730;28;20033;-74
2021/08/13 01:40:43;;;;;;;12.88;8.57;;;17.00;99.90;;;;;;5013559;28;20057;-75
2021/08/13 01:43:11;;;;;;;12.65;9.05;;;17.00;99.90;;;;;;5000054;28;20113;-75
2021/08/13 01:45:37;;;;;;;11.85;8.75;;;17.00;99.90;;;;;;4993705;28;20089;-74
2021/08/13 01:48:04;;;;;;;10.68;7.97;;;17.00;99.90;;;;;;4993749;28;20038;-75
2021/08/13 01:50:31;;;;;;;11.93;8.07;;;17.10;99.90;;;;;;5000945;28;20061;-75
2021/08/13 01:53:02;;;;;;;10.70;7.93;;;17.10;99.90;;;;;;4998142;28;20027;-74
2021/08/13 01:55:28;;;;;;;12.18;8.63;;;17.00;99.90;;;;;;5001932;28;20018;-74
2021/08/13 01:57:54;;;;;;;10.90;8.43;;;17.00;99.90;;;;;;5013312;28;20029;-74
2021/08/13 02:00:21;;;;;;;10.90;8.95;;;17.00;99.90;;;;;;5005147;28;20049;-75
2021/08/13 02:02:48;;;;;;;10.60;8.43;;;16.80;99.90;;;;;;4992437;28;20038;-75
2021/08/13 02:05:19;;;;;;;12.90;8.70;;;16.80;99.90;;;;;;4993366;28;20064;-75
2021/08/13 02:07:46;;;;;;;11.95;8.82;;;16.90;99.90;;;;;;5006862;28;20026;-75
2021/08/13 02:10:12;;;;;;;12.93;9.45;;;17.00;99.90;;;;;;4993437;28;20389;-74
2021/08/13 02:12:38;;;;;;;11.95;8.80;;;16.90;99.90;;;;;;4993270;28;20030;-74
2021/08/13 02:15:05;;;;;;;14.20;8.95;;;17.10;99.90;;;;;;5002439;28;20040;-74
2021/08/13 02:17:33;;;;;;;13.13;9.07;;;17.20;99.90;;;;;;5010049;28;20054;-74
2021/08/13 02:20:07;;;;;;;10.82;8.88;;;17.20;99.90;;;;;;5003016;28;20054;-74
2021/08/13 02:22:33;;;;;;;12.80;9.15;;;17.10;99.90;;;;;;4994079;28;20094;-74
2021/08/13 02:24:59;;;;;;;12.43;8.60;;;17.10;99.90;;;;;;4993042;28;20105;-74
2021/08/13 02:27:26;;;;;;;14.60;9.70;;;16.90;99.90;;;;;;4997302;28;20091;-74
2021/08/13 02:29:55;;;;;;;13.25;9.57;;;17.00;99.90;;;;;;5001867;28;20384;-74
2021/08/13 02:32:21;;;;;;;10.45;9.15;;;17.00;99.90;;;;;;4996441;28;20065;-74
2021/08/13 02:34:49;;;;;;;11.55;9.00;;;16.90;99.90;;;;;;5012572;28;20101;-73
2021/08/13 02:37:18;;;;;;;12.18;9.70;;;16.90;99.90;;;;;;5006305;28;20023;-75
2021/08/13 02:39:55;;;;;;;12.05;9.23;;;16.90;99.90;;;;;;5003890;28;20477;-75
2021/08/13 02:42:26;;;;;;;12.07;9.63;;;16.90;99.90;;;;;;4987135;28;20400;-75
2021/08/13 02:44:56;;;;;;;12.25;9.45;;;16.70;99.90;;;;;;4998020;28;20034;-75
2021/08/13 02:47:25;;;;;;;12.25;9.18;;;16.70;99.90;;;;;;5004220;28;20049;-74
2021/08/13 02:49:58;;;;;;;12.00;9.43;;;16.60;99.90;;;;;;5007750;28;20030;-73
2021/08/13 02:52:28;;;;;;;13.13;9.35;;;16.40;99.90;;;;;;5012267;28;20449;-74
2021/08/13 02:54:56;;;;;;;14.80;10.52;;;16.40;99.90;;;;;;5012081;28;20014;-74
2021/08/13 02:57:24;;;;;;;10.60;9.50;;;16.40;99.90;;;;;;5012180;28;20034;-74
2021/08/13 02:59:51;;;;;;;13.88;9.30;;;16.40;99.90;;;;;;5008084;28;20033;-73
2021/08/13 03:02:20;;;;;;;14.00;9.82;;;16.50;99.90;;;;;;5003338;28;20074;-73
2021/08/13 03:04:49;;;;;;;13.05;9.80;;;16.60;99.90;;;;;;4998866;28;20022;-73
2021/08/13 03:07:15;;;;;;;13.93;9.55;;;16.60;99.90;;;;;;5000745;28;20077;-73
2021/08/13 03:09:41;;;;;;;13.15;8.85;;;16.50;99.90;;;;;;5005891;28;20042;-73
2021/08/13 03:12:09;;;;;;;11.27;8.88;;;16.60;99.90;;;;;;4992451;28;20154;-73
2021/08/13 03:14:34;;;;;;;12.65;9.32;;;16.60;99.90;;;;;;4992316;28;20442;-73
2021/08/13 03:17:00;;;;;;;11.27;8.80;;;16.70;99.90;;;;;;4992609;28;20058;-74
2021/08/13 03:19:26;;;;;;;14.60;9.40;;;16.70;99.90;;;;;;4992423;28;20389;-74
2021/08/13 03:21:53;;;;;;;12.18;9.90;;;16.70;99.90;;;;;;4994718;28;20030;-74
2021/08/13 03:24:19;;;;;;;11.85;9.00;;;16.60;99.90;;;;;;4992133;28;20441;-75
2021/08/13 03:26:45;;;;;;;14.30;9.75;;;16.60;99.90;;;;;;4992279;28;20033;-74
2021/08/13 03:29:11;;;;;;;13.52;9.85;;;16.50;99.90;;;;;;5010821;28;20113;-75
2021/08/13 03:31:43;;;;;;;11.77;9.43;;;16.50;99.90;;;;;;5003242;28;20519;-74
2021/08/13 03:34:10;;;;;;;13.93;9.05;;;16.50;99.90;;;;;;5000928;28;20030;-75
2021/08/13 03:36:37;;;;;;;11.70;8.90;;;16.30;99.90;;;;;;5003432;28;20495;-75
2021/08/13 03:39:08;;;;;;;14.07;10.07;;;16.20;99.90;;;;;;5000863;28;20032;-73
2021/08/13 03:41:34;;;;;;;13.80;9.32;;;16.20;99.90;;;;;;5002569;28;20057;-74
2021/08/13 03:44:00;;;;;;;16.15;9.88;;;16.20;99.90;;;;;;4996275;28;20022;-75
2021/08/13 03:46:26;;;;;;;14.45;9.23;;;16.10;99.90;;;;;;5007764;28;20546;-74
2021/08/13 03:48:52;;;;;;;13.13;10.02;;;16.10;99.90;;;;;;4996144;28;20034;-74
2021/08/13 03:51:17;;;;;;;13.35;9.23;;;16.10;99.90;;;;;;5009057;28;20092;-74
2021/08/13 03:53:43;;;;;;;13.40;9.90;;;16.30;99.90;;;;;;5007940;28;20030;-74
2021/08/13 03:56:09;;;;;;;13.52;10.88;;;16.20;99.90;;;;;;4996141;28;20519;-74
2021/08/13 03:58:34;;;;;;;14.27;10.10;;;16.20;99.90;;;;;;5009093;28;20027;-74
2021/08/13 04:01:00;;;;;;;13.68;10.65;;;16.30;99.90;;;;;;5007497;28;20439;-74
2021/08/13 04:03:25;;;;;;;14.65;10.07;;;16.20;99.90;;;;;;4996318;28;20027;-74
2021/08/13 04:05:51;;;;;;;12.02;9.40;;;16.10;99.90;;;;;;4995729;28;20030;-74
2021/08/13 04:08:16;;;;;;;14.90;10.63;;;16.10;99.90;;;;;;5001686;28;20105;-74
2021/08/13 04:10:42;;;;;;;13.50;10.23;;;16.10;99.90;;;;;;5013893;28;20084;-74
2021/08/13 04:13:08;;;;;;;17.40;11.65;;;16.00;99.90;;;;;;5011994;28;20073;-73
2021/08/13 04:15:33;;;;;;;16.45;11.15;;;16.10;99.90;;;;;;4995581;28;20384;-74
2021/08/13 04:17:59;;;;;;;15.30;10.75;;;16.20;99.90;;;;;;4995544;28;20380;-73
2021/08/13 04:20:24;;;;;;;14.55;10.85;;;16.20;99.90;;;;;;5008501;28;20027;-73
2021/08/13 04:22:50;;;;;;;15.73;11.40;;;16.30;99.90;;;;;;4997696;28;20026;-73
2021/08/13 04:25:16;;;;;;;13.73;11.10;;;16.10;99.90;;;;;;5006716;28;20052;-73
2021/08/13 04:27:41;;;;;;;17.50;11.80;;;16.10;99.90;;;;;;4995460;28;20030;-72
2021/08/13 04:30:07;;;;;;;16.92;11.07;;;16.10;99.90;;;;;;4995418;28;20038;-73
2021/08/13 04:32:37;;;;;;;16.15;11.63;;;16.20;99.90;;;;;;5008519;28;20046;-72
2021/08/13 04:35:03;;;;;;;15.98;11.05;;;16.50;99.90;;;;;;5007415;28;20018;-73
2021/08/13 04:37:29;;;;;;;17.92;11.30;;;16.10;99.90;;;;;;5007805;28;20431;-73
2021/08/13 04:39:54;;;;;;;14.48;10.90;;;15.60;99.90;;;;;;5008431;28;20069;-74
2021/08/13 04:42:20;;;;;;;14.18;12.15;;;15.30;99.90;;;;;;5013326;28;20033;-73
2021/08/13 04:44:46;;;;;;;15.88;10.77;;;15.40;99.90;;;;;;5001410;28;20029;-73
2021/08/13 04:47:11;;;;;;;14.57;10.60;;;15.70;99.90;;;;;;5001445;28;20384;-72
2021/08/13 04:49:37;;;;;;;13.15;10.48;;;16.00;99.90;;;;;;5001269;28;20038;-73
2021/08/13 04:52:04;;;;;;;14.52;11.05;;;16.20;99.90;;;;;;4993624;28;20023;-73
2021/08/13 04:54:30;;;;;;;14.23;10.60;;;16.50;99.90;;;;;;5007493;28;20034;-73
2021/08/13 04:56:55;;;;;;;15.82;9.88;;;16.60;99.90;;;;;;4993925;28;20126;-72
2021/08/13 04:59:21;;;;;;;13.90;9.77;;;16.80;99.90;;;;;;5007603;28;20089;-72
2021/08/13 05:01:46;;;;;;;15.75;9.73;;;16.80;99.90;;;;;;5000022;28;20030;-72
2021/08/13 05:04:12;;;;;;;16.05;9.90;;;16.90;99.90;;;;;;5001519;28;20030;-73
2021/08/13 05:06:38;;;;;;;16.48;10.15;;;16.80;99.90;;;;;;5013782;28;20571;-73
2021/08/13 05:09:03;;;;;;;13.80;10.23;;;16.70;99.90;;;;;;5014121;28;20030;-73
2021/08/13 05:11:29;;;;;;;13.20;9.57;;;16.90;99.90;;;;;;5014026;28;20495;-73
2021/08/13 05:13:54;;;;;;;14.55;10.10;;;17.10;99.90;;;;;;5014126;28;20025;-76
2021/08/13 05:16:20;;;;;;;15.48;11.25;;;16.70;99.90;;;;;;5007575;28;20027;-73
2021/08/13 05:18:45;;;;;;;14.88;10.95;;;16.30;99.90;;;;;;4994490;28;20030;-73
2021/08/13 05:21:11;;;;;;;15.82;11.55;;;16.20;99.90;;;;;;5009124;28;20500;-75
2021/08/13 05:23:36;;;;;;;14.75;11.50;;;16.40;99.90;;;;;;5008953;28;20038;-75
2021/08/13 05:26:02;;;;;;;18.08;11.43;;;16.60;99.90;;;;;;5002200;28;20026;-75
2021/08/13 05:28:28;;;;;;;17.40;11.00;;;16.80;99.90;;;;;;5002642;28;20038;-75
2021/08/13 05:30:53;;;;;;;18.00;11.13;;;17.00;99.90;;;;;;5013877;28;20028;-75
2021/08/13 05:33:19;;;;;;;15.90;10.10;;;17.30;99.90;;;;;;5015201;28;20496;-75
2021/08/13 05:35:44;;;;;;;12.85;10.27;;;17.50;99.90;;;;;;5002251;28;20053;-75
2021/08/13 05:38:10;;;;;;;15.32;10.55;;;17.60;99.90;;;;;;5003015;28;20071;-75
2021/08/13 05:40:37;;;;;;;15.13;10.65;;;17.60;99.90;;;;;;5008486;28;20057;-75
2021/08/13 05:43:03;;;;;;;14.10;10.80;;;17.50;99.90;;;;;;4995309;28;20022;-75
2021/08/13 05:45:28;;;;;;;17.55;11.00;;;17.40;99.90;;;;;;4999003;28;20112;-72
2021/08/13 05:47:54;;;;;;;17.75;11.55;;;17.20;99.90;;;;;;5001546;28;20058;-74
2021/08/13 05:50:20;;;;;;;18.45;12.13;;;17.20;99.90;;;;;;5007031;28;20110;-74
2021/08/13 05:52:45;;;;;;;14.52;11.43;;;17.30;99.90;;;;;;4993589;28;20477;-74
2021/08/13 05:55:11;;;;;;;14.80;10.48;;;17.30;99.90;;;;;;5000441;28;20022;-74
2021/08/13 05:57:37;;;;;;;16.65;10.82;;;17.50;99.90;;;;;;5015282;28;20030;-74
2021/08/13 06:00:05;;;;;;;13.75;10.50;;;17.60;99.90;;;;;;5001552;28;20116;-74
2021/08/13 06:02:31;;;;;;;17.60;10.70;;;17.70;99.90;;;;;;5002689;28;20033;-74
2021/08/13 06:04:57;;;;;;;13.00;9.65;;;17.90;99.90;;;;;;5005794;28;20393;-74
2021/08/13 06:07:23;;;;;;;17.17;10.38;;;17.90;99.90;;;;;;5006311;28;20495;-74
2021/08/13 06:09:49;;;;;;;13.50;10.23;;;18.00;99.90;;;;;;4994680;28;20030;-73
2021/08/13 06:12:14;;;;;;;12.90;9.52;;;18.10;99.90;;;;;;5005617;28;20026;-73
2021/08/13 06:14:40;;;;;;;16.27;11.02;;;18.00;99.90;;;;;;5012797;28;20014;-74
2021/08/13 06:17:06;;;;;;;13.55;10.43;;;17.90;99.90;;;;;;5011779;28;20033;-73
2021/08/13 06:19:31;;;;;;;14.73;10.18;;;18.00;99.90;;;;;;4993654;28;20053;-73
2021/08/13 06:21:57;;;;;;;14.40;10.80;;;18.10;99.90;;;;;;4991976;28;20081;-73
2021/08/13 06:24:23;;;;;;;14.77;9.77;;;18.00;99.90;;;;;;5006258;28;20030;-73
2021/08/13 06:26:48;;;;;;;13.95;10.35;;;18.00;99.90;;;;;;5005661;28;20033;-73
2021/08/13 06:29:14;;;;;;;14.98;10.57;;;18.10;99.90;;;;;;4993488;28;20030;-74
2021/08/13 06:31:39;;;;;;;13.63;10.65;;;18.20;99.90;;;;;;4993085;28;20023;-73
2021/08/13 06:34:05;;;;;;;16.52;10.50;;;18.30;99.90;;;;;;5012250;28;20030;-74
2021/08/13 06:36:30;;;;;;;14.60;10.07;;;18.30;99.90;;;;;;4998476;28;20042;-74
2021/08/13 06:38:56;;;;;;;15.02;11.18;;;18.30;99.90;;;;;;4993119;28;20393;-73
2021/08/13 06:41:22;;;;;;;12.45;10.10;;;18.30;99.90;;;;;;5005525;28;20388;-73
2021/08/13 06:43:47;;;;;;;18.13;11.60;;;18.40;99.90;;;;;;4999270;28;20084;-74
2021/08/13 06:46:13;;;;;;;14.75;10.82;;;18.50;99.90;;;;;;5000180;28;20018;-73
2021/08/13 06:48:38;;;;;;;16.95;10.02;;;18.60;99.90;;;;;;5004724;28;20117;-73
2021/08/13 06:51:04;;;;;;;14.15;10.98;;;18.70;99.90;;;;;;5004942;28;20128;-73
2021/08/13 06:53:29;;;;;;;15.05;10.88;;;18.60;99.90;;;;;;4993478;28;20026;-73
2021/08/13 06:55:55;;;;;;;16.85;10.80;;;18.60;99.90;;;;;;4992908;28;20030;-73
2021/08/13 06:58:20;;;;;;;12.90;10.38;;;18.80;99.90;;;;;;4996381;28;20036;-76
2021/08/13 07:00:46;;;;;;;19.38;11.30;;;18.70;99.90;;;;;;4999747;28;20066;-73
2021/08/13 07:03:11;;;;;;;15.38;11.40;;;18.70;99.90;;;;;;5009690;28;20053;-73
2021/08/13 07:05:37;;;;;;;18.80;11.95;;;18.90;99.90;;;;;;5001189;28;20076;-73
2021/08/13 07:08:09;;;;;;;16.35;11.43;;;18.90;99.90;;;;;;5005665;28;20381;-74
2021/08/13 07:10:35;;;;;;;20.63;12.48;;;19.00;99.90;;;;;;5004700;28;20021;-74
2021/08/13 07:13:00;;;;;;;17.33;11.20;;;19.00;99.90;;;;;;4993535;28;20030;-73
2021/08/13 07:15:26;;;;;;;17.23;12.13;;;19.40;99.90;;;;;;4990912;28;20026;-73
2021/08/13 07:17:51;;;;;;;16.83;11.52;;;19.40;99.90;;;;;;5020724;28;20424;-73
2021/08/13 07:20:17;;;;;;;16.27;11.63;;;19.70;99.90;;;;;;5004898;28;20025;-74
2021/08/13 07:22:43;;;;;;;16.20;11.23;;;19.90;99.90;;;;;;4998835;28;20495;-73
2021/08/13 07:25:09;;;;;;;17.98;11.13;;;20.20;99.90;;;;;;4999952;28;20041;-73
2021/08/13 07:27:34;;;;;;;14.40;10.55;;;20.20;99.90;;;;;;5006308;28;20093;-73
2021/08/13 07:30:00;;;;;;;15.27;10.50;;;20.20;99.90;;;;;;5004537;28;20525;-73
2021/08/13 07:32:26;;;;;;;16.95;10.55;;;20.30;99.90;;;;;;4998851;28;20026;-73
2021/08/13 07:34:52;;;;;;;11.40;9.57;;;20.60;99.90;;;;;;4999859;28;20027;-74
2021/08/13 07:37:17;;;;;;;14.57;10.43;;;20.90;99.90;;;;;;5005469;28;20027;-74
2021/08/13 07:39:43;;;;;;;15.93;10.13;;;21.00;99.90;;;;;;5004236;28;20080;-74
2021/08/13 07:42:09;;;;;;;14.13;10.45;;;20.80;99.90;;;;;;4998844;28;20030;-73
2021/08/13 07:44:34;;;;;;;15.30;10.32;;;20.80;99.90;;;;;;4999927;28;20080;-73
2021/08/13 07:47:00;;;;;;;16.17;10.93;;;20.90;99.90;;;;;;4992371;28;20434;-73
2021/08/13 07:49:25;;;;;;;20.40;10.80;;;21.20;99.90;;;;;;5002614;28;20030;-73
2021/08/13 07:51:51;;;;;;;13.30;10.23;;;21.40;99.90;;;;;;4998587;28;20045;-73
2021/08/13 07:54:16;;;;;;;15.32;10.98;;;21.20;99.90;;;;;;5000113;28;20089;-74
2021/08/13 07:56:42;;;;;;;17.30;11.10;;;21.10;99.90;;;;;;5005189;28;20018;-73
2021/08/13 07:59:08;;;;;;;15.95;10.70;;;21.10;99.90;;;;;;4995367;28;20074;-73
2021/08/13 08:01:34;;;;;;;17.58;10.75;;;21.10;99.90;;;;;;4998788;28;20407;-73
2021/08/13 08:03:59;;;;;;;15.55;10.82;;;21.20;99.90;;;;;;4990944;28;20027;-73
2021/08/13 08:06:28;;;;;;;15.90;10.25;;;21.10;99.90;;;;;;4997094;28;20089;-73
2021/08/13 08:08:53;;;;;;;15.65;9.77;;;21.20;99.90;;;;;;4999649;28;20030;-73
2021/08/13 08:11:19;;;;;;;17.08;10.50;;;21.50;99.90;;;;;;5005300;28;20023;-73
2021/08/13 08:13:44;;;;;;;17.90;10.48;;;21.70;99.90;;;;;;4992032;28;20474;-73
2021/08/13 08:16:10;;;;;;;24.77;12.80;;;21.70;99.90;;;;;;4991112;28;20026;-73
2021/08/13 08:18:35;;;;;;;16.10;11.25;;;21.80;99.90;;;;;;4995551;28;20027;-74
2021/08/13 08:21:01;;;;;;;15.70;10.75;;;22.10;99.90;;;;;;5005349;28;20109;-74
2021/08/13 08:23:26;;;;;;;14.85;10.38;;;22.10;99.90;;;;;;4995538;28;20445;-73
2021/08/13 08:25:52;;;;;;;13.70;10.88;;;22.20;99.90;;;;;;4995243;28;20037;-74
2021/08/13 08:28:18;;;;;;;14.60;10.75;;;22.10;99.90;;;;;;5006573;28;20041;-74
2021/08/13 08:30:43;;;;;;;15.65;10.35;;;22.30;99.90;;;;;;5001651;28;20064;-73
2021/08/13 08:33:09;;;;;;;16.02;11.13;;;22.40;99.90;;;;;;5004398;28;20038;-73
2021/08/13 08:35:34;;;;;;;16.88;11.35;;;22.70;99.90;;;;;;4999245;28;20495;-74
2021/08/13 08:38:01;;;;;;;13.45;11.32;;;22.70;99.90;;;;;;5004309;28;20504;-73
2021/08/13 08:40:33;;;;;;;14.05;10.38;;;22.70;99.90;;;;;;5008531;28;20033;-74
2021/08/13 08:43:02;;;;;;;16.15;10.82;;;22.80;99.90;;;;;;5005497;28;20038;-73
2021/08/13 08:45:30;;;;;;;21.88;12.77;;;22.90;99.90;;;;;;5001550;28;20117;-73
2021/08/13 08:48:07;;;;;;;15.15;10.25;;;23.20;99.90;;;;;;5002541;28;20429;-74
2021/08/13 08:50:35;;;;;;;14.55;10.20;;;23.30;99.90;;;;;;4994915;28;20036;-73
2021/08/13 08:53:03;;;;;;;15.88;10.80;;;23.20;99.90;;;;;;4995820;28;20018;-73
2021/08/13 08:55:31;;;;;;;19.58;11.60;;;23.20;99.90;;;;;;5006743;28;20030;-73
2021/08/13 08:57:58;;;;;;;18.40;11.18;;;23.30;99.90;;;;;;4995419;28;20512;-73
2021/08/13 09:00:24;;;;;;;14.20;10.32;;;23.20;99.90;;;;;;5001816;28;20030;-73
2021/08/13 09:02:50;;;;;;;14.50;9.93;;;23.20;99.90;;;;;;4999976;28;20408;-74
2021/08/13 09:05:16;;;;;;;14.23;10.05;;;23.30;99.90;;;;;;5002530;28;20504;-73
2021/08/13 09:07:42;;;;;;;16.70;10.65;;;23.40;99.90;;;;;;4999792;28;20039;-73
2021/08/13 09:10:12;;;;;;;13.30;10.55;;;23.50;99.90;;;;;;5002331;28;20026;-73
2021/08/13 09:12:39;;;;;;;13.10;10.43;;;23.60;99.90;;;;;;5001222;28;20022;-73
2021/08/13 09:15:24;;;;;;;15.25;10.48;;;23.50;99.90;;;;;;5013286;28;20022;-74
2021/08/13 09:18:09;;;;;;;13.57;10.88;;;23.70;99.90;;;;;;4993290;28;20493;-73
2021/08/13 09:20:39;;;;;;;15.55;11.38;;;23.80;99.90;;;;;;5007701;28;20030;-74
2021/08/13 09:23:05;;;;;;;14.32;10.90;;;23.80;99.90;;;;;;4994560;28;20073;-74
2021/08/13 09:25:30;;;;;;;13.80;10.70;;;24.10;99.90;;;;;;4996096;28;20034;-74
2021/08/13 09:27:56;;;;;;;14.93;11.30;;;24.10;99.90;;;;;;5004812;28;20034;-73
2021/08/13 09:30:22;;;;;;;13.85;11.13;;;24.20;99.90;;;;;;5007606;28;20026;-73
2021/08/13 09:33:05;;;;;;;14.82;10.95;;;24.10;99.90;;;;;;4994227;28;20018;-74
2021/08/13 09:35:33;;;;;;;14.25;11.32;;;24.10;99.90;;;;;;4993994;28;20084;-74
2021/08/13 09:38:01;;;;;;;13.48;10.55;;;24.10;99.90;;;;;;4994270;28;20070;-73
2021/08/13 09:40:27;;;;;;;15.13;11.25;;;24.30;99.90;;;;;;5007382;28;20054;-73
2021/08/13 09:43:02;;;;;;;15.32;11.15;;;24.50;99.90;;;;;;4994094;28;20053;-74
2021/08/13 09:45:27;;;;;;;16.50;10.77;;;24.30;99.90;;;;;;4999084;28;20018;-74
2021/08/13 09:47:53;;;;;;;15.20;10.68;;;24.30;99.90;;;;;;5000518;28;20044;-74
2021/08/13 09:50:36;;;;;;;13.20;10.40;;;24.50;99.90;;;;;;5006986;28;20042;-74
2021/08/13 09:53:13;;;;;;;15.32;11.77;;;24.80;99.90;;;;;;5007159;28;20025;-74
2021/08/13 09:55:40;;;;;;;12.93;10.50;;;25.20;99.90;;;;;;5002429;28;20469;-74
2021/08/13 09:58:08;;;;;;;14.98;10.40;;;25.30;99.90;;;;;;4998036;28;20034;-74
2021/08/13 10:00:46;;;;;;;14.32;10.27;;;25.60;99.90;;;;;;5001837;28;20045;-74
2021/08/13 10:03:12;;;;;;;12.95;9.52;;;25.50;99.90;;;;;;5009112;28;20023;-73
2021/08/13 10:05:37;;;;;;;14.40;10.25;;;26.10;99.90;;;;;;4993411;28;20030;-73
2021/08/13 10:08:04;;;;;;;13.10;10.13;;;25.80;99.90;;;;;;4997847;28;20026;-74
2021/08/13 10:10:33;;;;;;;13.65;10.45;;;25.70;99.90;;;;;;5011950;28;20026;-74
2021/08/13 10:12:59;;;;;;;13.68;9.07;;;25.80;99.90;;;;;;4995303;28;20033;-74
2021/08/13 10:15:32;;;;;;;16.88;10.20;;;26.00;99.90;;;;;;5005226;28;20026;-74
2021/08/13 10:17:59;;;;;;;14.65;10.32;;;26.20;99.90;;;;;;4999853;28;20030;-74
2021/08/13 10:20:26;;;;;;;16.75;10.68;;;26.00;99.90;;;;;;4999716;28;20102;-73
2021/08/13 10:22:52;;;;;;;11.90;9.73;;;25.90;99.90;;;;;;4993248;28;20027;-74
2021/08/13 10:25:20;;;;;;;14.25;9.95;;;25.80;99.90;;;;;;4993264;28;20022;-75
2021/08/13 10:27:47;;;;;;;11.57;9.10;;;26.20;99.90;;;;;;4993294;28;20030;-74
2021/08/13 10:30:15;;;;;;;13.50;10.15;;;26.10;99.90;;;;;;4993197;28;20517;-74
2021/08/13 10:32:41;;;;;;;11.52;8.75;;;26.20;99.90;;;;;;5000258;28;20534;-74
2021/08/13 10:35:07;;;;;;;11.95;9.25;;;26.10;99.90;;;;;;5011778;28;20477;-74
2021/08/13 10:37:35;;;;;;;11.82;9.52;;;26.00;99.90;;;;;;4992877;28;20489;-74
2021/08/13 10:40:00;;;;;;;15.27;9.63;;;26.00;99.90;;;;;;5007101;28;20034;-74
2021/08/13 10:42:27;;;;;;;15.52;9.18;;;26.00;99.90;;;;;;5005227;28;20034;-74
2021/08/13 10:45:04;;;;;;;12.85;9.93;;;25.80;99.90;;;;;;4992747;28;20023;-74
2021/08/13 10:47:37;;;;;;;11.95;8.85;;;26.00;99.90;;;;;;4991670;28;20030;-74
2021/08/13 10:50:05;;;;;;;14.40;9.57;;;26.20;99.90;;;;;;5009073;28;20026;-73
2021/08/13 10:52:33;;;;;;;10.88;9.25;;;26.10;99.90;;;;;;5012453;28;20596;-73
2021/08/13 10:54:59;;;;;;;14.00;9.27;;;26.30;99.90;;;;;;4995490;28;20475;-74
2021/08/13 10:57:55;;;;;;;12.23;9.52;;;26.20;99.90;;;;;;4992867;28;20027;-74
2021/08/13 11:00:21;;;;;;;11.38;8.85;;;26.40;99.90;;;;;;4984609;28;20042;-73
2021/08/13 11:03:14;;;;;;;12.10;9.57;;;27.00;99.90;;;;;;5007069;28;20057;-74
2021/08/13 11:05:58;;;;;;;14.18;9.40;;;26.40;99.90;;;;;;5010775;28;20083;-73
2021/08/13 11:08:45;;;;;;;16.58;9.60;;;26.30;99.90;;;;;;4980627;28;20536;-74
2021/08/13 11:11:12;;;;;;;12.15;9.18;;;26.30;99.90;;;;;;4996156;28;20029;-74
2021/08/13 11:13:42;;;;;;;12.27;9.70;;;26.40;99.90;;;;;;5001835;28;20022;-74
2021/08/13 11:16:38;;;;;;;14.48;9.25;;;27.10;99.90;;;;;;4992822;28;20353;-73
2021/08/13 11:19:10;;;;;;;14.75;9.23;;;27.80;99.90;;;;;;4992187;28;20042;-73
2021/08/13 11:21:46;;;;;;;13.82;9.77;;;27.70;99.90;;;;;;4992807;28;20058;-73
2021/08/13 11:24:12;;;;;;;13.63;9.77;;;27.90;99.90;;;;;;5008228;28;20026;-74
2021/08/13 11:26:50;;;;;;;10.65;9.55;;;27.70;99.90;;;;;;5001192;28;20026;-74
2021/08/13 11:29:27;;;;;;;10.93;9.55;;;28.10;99.90;;;;;;4996758;28;20022;-73
2021/08/13 11:31:54;;;;;;;10.25;9.20;;;28.30;99.90;;;;;;5011817;28;20036;-73
2021/08/13 11:34:41;;;;;;;10.52;9.43;;;28.50;99.90;;;;;;5011899;28;20029;-74
2021/08/13 11:37:07;;;;;;;15.73;9.43;;;28.30;99.90;;;;;;5007489;28;20022;-74
2021/08/13 11:39:37;;;;;;;10.45;9.00;;;28.40;99.90;;;;;;5002237;28;20036;-74
2021/08/13 11:42:06;;;;;;;9.80;8.75;;;28.10;99.90;;;;;;4997466;28;20051;-74
2021/08/13 11:44:33;;;;;;;10.98;8.77;;;28.30;99.90;;;;;;5011807;28;20032;-73
2021/08/13 11:46:59;;;;;;;10.85;8.63;;;27.90;99.90;;;;;;4998939;28;20084;-74
2021/08/13 11:49:25;;;;;;;11.85;9.05;;;28.10;99.90;;;;;;5000504;28;20029;-74
2021/08/13 11:51:51;;;;;;;11.57;9.07;;;28.50;99.90;;;;;;5011690;28;20014;-75
2021/08/13 11:54:28;;;;;;;10.43;8.38;;;28.50;99.90;;;;;;5004768;28;20022;-75
2021/08/13 11:56:53;;;;;;;9.55;8.55;;;28.30;99.90;;;;;;4996015;28;20037;-75
2021/08/13 11:59:19;;;;;;;11.55;8.60;;;28.50;99.90;;;;;;5007088;28;20042;-75
2021/08/13 12:01:49;;;;;;;9.52;8.13;;;28.50;99.90;;;;;;5002739;28;20034;-74
2021/08/13 12:04:17;;;;;;;9.85;8.68;;;28.80;99.90;;;;;;5002945;28;20027;-74
2021/08/13 12:07:00;;;;;;;9.93;7.97;;;28.10;99.90;;;;;;5001966;28;20472;-74
2021/08/13 12:09:39;;;;;;;10.23;8.43;;;28.90;99.90;;;;;;5000916;28;20165;-74
2021/08/13 12:12:12;;;;;;;10.55;8.43;;;28.90;99.90;;;;;;4995774;28;20027;-73
2021/08/13 12:14:47;;;;;;;11.65;8.18;;;28.70;99.90;;;;;;5006027;28;20535;-74
2021/08/13 12:17:13;;;;;;;11.88;8.60;;;28.10;99.90;;;;;;5015302;28;20472;-74
2021/08/13 12:19:39;;;;;;;10.25;7.95;;;28.50;99.90;;;;;;5013843;28;20115;-73
2021/08/13 12:22:06;;;;;;;9.68;8.68;;;28.80;99.90;;;;;;5001927;28;20029;-74
2021/08/13 12:24:40;;;;;;;12.05;8.48;;;28.80;99.90;;;;;;5014918;28;20391;-74
2021/08/13 12:27:11;;;;;;;10.63;8.20;;;29.00;99.90;;;;;;4999100;28;20524;-73
2021/08/13 12:29:39;;;;;;;10.05;8.82;;;29.80;99.90;;;;;;4994947;28;20036;-73
2021/08/13 12:32:06;;;;;;;11.35;8.70;;;30.30;99.90;;;;;;4997488;28;20027;-74
2021/08/13 12:34:35;;;;;;;10.77;8.25;;;30.60;99.90;;;;;;5005695;28;20485;-74
2021/08/13 12:37:03;;;;;;;10.38;8.20;;;30.80;99.90;;;;;;5007327;28;20022;-74